This is the latest recevied weather packets stored in our database for station/object VE3MNX. If no packets are shown the sender has not sent any weather packets the latest 10 day(s).
| Time | Temp. | Humidity | Pressure | Rain* | Wind** | Luminosity | Snow |
|---|---|---|---|---|---|---|---|
| 1777868601 | 8.89° C | 92% | 1008.5 hPa | 0 mm | - | - | - |
| 1777867698 | 8.89° C | 92% | 1008.5 hPa | 0 mm | - | - | - |
| 1777866793 | 8.89° C | 91% | 1008.5 hPa | 0 mm | - | - | - |
| 1777865892 | 9.44° C | 91% | 1008.8 hPa | 0 mm | - | - | - |
| 1777864992 | 9.44° C | 90% | 1008.8 hPa | 0 mm | - | - | - |
| 1777864092 | 9.44° C | 89% | 1008.8 hPa | 0 mm | - | - | - |
| 1777863193 | 10° C | 89% | 1009.1 hPa | 0 mm | - | - | - |
| 1777862292 | 10° C | 89% | 1009.5 hPa | 0 mm | - | - | - |
| 1777861393 | 10.56° C | 86% | 1009.1 hPa | 0 mm | - | - | - |
| 1777860493 | 10.56° C | 81% | 1009.5 hPa | 0 mm | - | - | - |
| 1777859592 | 11.11° C | 84% | 1009.5 hPa | 0 mm | - | - | - |
| 1777858692 | 12.22° C | 75% | 1008.8 hPa | 0 mm | - | - | - |
| 1777857793 | 12.22° C | 72% | 1008.8 hPa | 0 mm | - | - | - |
| 1777856892 | 12.78° C | 72% | 1008.5 hPa | 0 mm | - | - | - |
| 1777855992 | 12.22° C | 74% | 1008.8 hPa | 0 mm | - | - | - |
| 1777855091 | 10.56° C | 81% | 1008.8 hPa | 0 mm | - | - | - |
| 1777854192 | 11.11° C | 80% | 1008.5 hPa | 0 mm | - | - | - |
| 1777853292 | 11.11° C | 79% | 1008.5 hPa | 0 mm | - | - | - |
| 1777852392 | 11.11° C | 78% | 1008.1 hPa | 0 mm | - | - | - |
| 1777851493 | 11.67° C | 78% | 1008.5 hPa | 0 mm | - | - | - |
| 1777850593 | 11.67° C | 76% | 1008.5 hPa | 0 mm | - | - | - |
| 1777849691 | 11.67° C | 77% | 1008.8 hPa | 0 mm | - | - | - |
| 1777847892 | 12.22° C | 76% | 1008.8 hPa | 0 mm | - | - | - |
| 1777846992 | 12.78° C | 72% | 1008.5 hPa | 0 mm | - | - | - |
| 1777846092 | 12.78° C | 73% | 1008.8 hPa | 0 mm | - | - | - |
* Rain latest hour (hover to see other rain measurements)
** Current wind speed in m/s (hover to see current wind gust speed)